sensor_id;sensor_type;location;lat;lon;timestamp;temperature;humidity
22035;DHT22;11181;51.002;4.356;2023-02-19T00:00:16;11.90;99.90
22035;DHT22;11181;51.002;4.356;2023-02-19T00:02:46;11.90;99.90
22035;DHT22;11181;51.002;4.356;2023-02-19T00:05:13;11.90;99.90
22035;DHT22;11181;51.002;4.356;2023-02-19T00:07:40;11.90;99.90
22035;DHT22;11181;51.002;4.356;2023-02-19T00:10:08;11.90;99.90
22035;DHT22;11181;51.002;4.356;2023-02-19T00:12:35;11.90;99.90
22035;DHT22;11181;51.002;4.356;2023-02-19T00:15:01;11.90;99.90
22035;DHT22;11181;51.002;4.356;2023-02-19T00:17:30;11.80;99.90
22035;DHT22;11181;51.002;4.356;2023-02-19T00:19:58;11.90;99.90
22035;DHT22;11181;51.002;4.356;2023-02-19T00:22:25;11.80;99.90
22035;DHT22;11181;51.002;4.356;2023-02-19T00:24:52;11.80;99.90
22035;DHT22;11181;51.002;4.356;2023-02-19T00:27:19;11.70;99.90
22035;DHT22;11181;51.002;4.356;2023-02-19T00:29:45;11.70;99.90
22035;DHT22;11181;51.002;4.356;2023-02-19T00:32:12;11.70;99.90
22035;DHT22;11181;51.002;4.356;2023-02-19T00:34:39;11.80;99.90
22035;DHT22;11181;51.002;4.356;2023-02-19T00:37:07;11.80;99.90
22035;DHT22;11181;51.002;4.356;2023-02-19T00:39:34;11.80;99.90
22035;DHT22;11181;51.002;4.356;2023-02-19T00:42:01;11.80;99.90
22035;DHT22;11181;51.002;4.356;2023-02-19T00:44:28;11.80;99.90
22035;DHT22;11181;51.002;4.356;2023-02-19T00:46:55;11.80;99.90
22035;DHT22;11181;51.002;4.356;2023-02-19T00:49:23;11.80;99.90
22035;DHT22;11181;51.002;4.356;2023-02-19T00:51:51;11.80;99.90
22035;DHT22;11181;51.002;4.356;2023-02-19T00:54:19;11.80;99.90
22035;DHT22;11181;51.002;4.356;2023-02-19T00:56:47;11.80;99.90
22035;DHT22;11181;51.002;4.356;2023-02-19T00:59:14;11.80;99.90
22035;DHT22;11181;51.002;4.356;2023-02-19T01:01:42;11.80;99.90
22035;DHT22;11181;51.002;4.356;2023-02-19T01:04:09;11.80;99.90
22035;DHT22;11181;51.002;4.356;2023-02-19T01:06:36;11.90;99.90
22035;DHT22;11181;51.002;4.356;2023-02-19T01:09:04;11.80;99.90
22035;DHT22;11181;51.002;4.356;2023-02-19T01:11:34;11.90;99.90
22035;DHT22;11181;51.002;4.356;2023-02-19T01:14:01;11.80;99.90
22035;DHT22;11181;51.002;4.356;2023-02-19T01:16:29;11.80;99.90
22035;DHT22;11181;51.002;4.356;2023-02-19T01:18:57;11.80;99.90
22035;DHT22;11181;51.002;4.356;2023-02-19T01:21:25;11.80;99.90
22035;DHT22;11181;51.002;4.356;2023-02-19T01:23:53;11.80;99.90
22035;DHT22;11181;51.002;4.356;2023-02-19T01:26:22;11.70;99.90
22035;DHT22;11181;51.002;4.356;2023-02-19T01:28:51;11.70;99.90
22035;DHT22;11181;51.002;4.356;2023-02-19T01:31:19;11.70;99.90
22035;DHT22;11181;51.002;4.356;2023-02-19T01:33:48;11.70;99.90
22035;DHT22;11181;51.002;4.356;2023-02-19T01:36:15;11.70;99.90
22035;DHT22;11181;51.002;4.356;2023-02-19T01:38:43;11.70;99.90
22035;DHT22;11181;51.002;4.356;2023-02-19T01:41:12;11.70;99.90
22035;DHT22;11181;51.002;4.356;2023-02-19T01:46:34;11.70;99.90
22035;DHT22;11181;51.002;4.356;2023-02-19T01:49:03;11.70;99.90
22035;DHT22;11181;51.002;4.356;2023-02-19T01:51:32;11.70;99.90
22035;DHT22;11181;51.002;4.356;2023-02-19T01:54:02;11.70;99.90
22035;DHT22;11181;51.002;4.356;2023-02-19T01:56:30;11.70;99.90
22035;DHT22;11181;51.002;4.356;2023-02-19T01:58:59;11.70;99.90
22035;DHT22;11181;51.002;4.356;2023-02-19T02:01:26;11.70;99.90
22035;DHT22;11181;51.002;4.356;2023-02-19T02:03:54;11.70;99.90
22035;DHT22;11181;51.002;4.356;2023-02-19T02:06:23;11.60;99.90
22035;DHT22;11181;51.002;4.356;2023-02-19T02:08:54;11.70;99.90
22035;DHT22;11181;51.002;4.356;2023-02-19T02:11:41;11.70;99.90
22035;DHT22;11181;51.002;4.356;2023-02-19T02:14:10;11.60;99.90
22035;DHT22;11181;51.002;4.356;2023-02-19T02:16:44;11.60;99.90
22035;DHT22;11181;51.002;4.356;2023-02-19T02:19:29;11.70;99.90
22035;DHT22;11181;51.002;4.356;2023-02-19T02:22:09;11.60;99.90
22035;DHT22;11181;51.002;4.356;2023-02-19T02:24:57;11.60;99.90
22035;DHT22;11181;51.002;4.356;2023-02-19T02:27:42;11.70;99.90
22035;DHT22;11181;51.002;4.356;2023-02-19T02:30:30;11.70;99.90
22035;DHT22;11181;51.002;4.356;2023-02-19T02:33:04;11.80;99.90
22035;DHT22;11181;51.002;4.356;2023-02-19T02:35:36;11.80;99.90
22035;DHT22;11181;51.002;4.356;2023-02-19T02:38:07;11.80;99.90
22035;DHT22;11181;51.002;4.356;2023-02-19T02:40:41;11.80;99.90
22035;DHT22;11181;51.002;4.356;2023-02-19T02:43:09;11.80;99.90
22035;DHT22;11181;51.002;4.356;2023-02-19T02:45:37;11.80;99.90
22035;DHT22;11181;51.002;4.356;2023-02-19T02:48:18;11.80;99.90
22035;DHT22;11181;51.002;4.356;2023-02-19T02:50:49;11.70;99.90
22035;DHT22;11181;51.002;4.356;2023-02-19T02:53:21;11.70;99.90
22035;DHT22;11181;51.002;4.356;2023-02-19T02:56:06;11.70;99.90
22035;DHT22;11181;51.002;4.356;2023-02-19T02:58:33;11.60;99.90
22035;DHT22;11181;51.002;4.356;2023-02-19T03:01:05;11.70;99.90
22035;DHT22;11181;51.002;4.356;2023-02-19T03:03:55;11.70;99.90
22035;DHT22;11181;51.002;4.356;2023-02-19T03:06:25;11.60;99.90
22035;DHT22;11181;51.002;4.356;2023-02-19T03:08:57;11.60;99.90
22035;DHT22;11181;51.002;4.356;2023-02-19T03:11:25;11.60;99.90
22035;DHT22;11181;51.002;4.356;2023-02-19T03:14:13;11.70;99.90
22035;DHT22;11181;51.002;4.356;2023-02-19T03:17:05;11.70;99.90
22035;DHT22;11181;51.002;4.356;2023-02-19T03:19:54;11.70;99.90
22035;DHT22;11181;51.002;4.356;2023-02-19T03:22:23;11.70;99.90
22035;DHT22;11181;51.002;4.356;2023-02-19T03:24:54;11.70;99.90
22035;DHT22;11181;51.002;4.356;2023-02-19T03:27:42;11.70;99.90
22035;DHT22;11181;51.002;4.356;2023-02-19T03:30:13;11.70;99.90
22035;DHT22;11181;51.002;4.356;2023-02-19T03:32:46;11.80;99.90
22035;DHT22;11181;51.002;4.356;2023-02-19T03:35:16;11.80;99.90
22035;DHT22;11181;51.002;4.356;2023-02-19T03:37:48;11.80;99.90
22035;DHT22;11181;51.002;4.356;2023-02-19T03:40:16;11.80;99.90
22035;DHT22;11181;51.002;4.356;2023-02-19T03:42:52;11.80;99.90
22035;DHT22;11181;51.002;4.356;2023-02-19T03:45:32;11.70;99.90
22035;DHT22;11181;51.002;4.356;2023-02-19T03:48:17;11.80;99.90
22035;DHT22;11181;51.002;4.356;2023-02-19T03:50:49;11.80;99.90
22035;DHT22;11181;51.002;4.356;2023-02-19T03:53:23;11.70;99.90
22035;DHT22;11181;51.002;4.356;2023-02-19T03:56:05;11.70;99.90
22035;DHT22;11181;51.002;4.356;2023-02-19T03:58:39;11.60;99.90
22035;DHT22;11181;51.002;4.356;2023-02-19T04:01:12;11.60;99.90
22035;DHT22;11181;51.002;4.356;2023-02-19T04:03:45;11.50;99.90
22035;DHT22;11181;51.002;4.356;2023-02-19T04:06:18;11.70;99.90
22035;DHT22;11181;51.002;4.356;2023-02-19T04:08:48;11.70;99.90
22035;DHT22;11181;51.002;4.356;2023-02-19T04:11:16;11.80;99.90
22035;DHT22;11181;51.002;4.356;2023-02-19T04:13:47;11.80;99.90
22035;DHT22;11181;51.002;4.356;2023-02-19T04:16:19;11.80;99.90
22035;DHT22;11181;51.002;4.356;2023-02-19T04:18:50;11.80;99.90
22035;DHT22;11181;51.002;4.356;2023-02-19T04:21:20;11.80;99.90
22035;DHT22;11181;51.002;4.356;2023-02-19T04:23:48;11.80;99.90
22035;DHT22;11181;51.002;4.356;2023-02-19T04:26:16;11.80;99.90
22035;DHT22;11181;51.002;4.356;2023-02-19T04:28:45;11.70;99.90
22035;DHT22;11181;51.002;4.356;2023-02-19T04:31:12;11.70;99.90
22035;DHT22;11181;51.002;4.356;2023-02-19T04:33:39;11.80;99.90
22035;DHT22;11181;51.002;4.356;2023-02-19T04:36:09;11.70;99.90
22035;DHT22;11181;51.002;4.356;2023-02-19T04:38:36;11.70;99.90
22035;DHT22;11181;51.002;4.356;2023-02-19T04:41:04;11.70;99.90
22035;DHT22;11181;51.002;4.356;2023-02-19T04:43:31;11.70;99.90
22035;DHT22;11181;51.002;4.356;2023-02-19T04:45:59;11.80;99.90
22035;DHT22;11181;51.002;4.356;2023-02-19T04:48:27;11.80;99.90
22035;DHT22;11181;51.002;4.356;2023-02-19T04:50:54;11.80;99.90
22035;DHT22;11181;51.002;4.356;2023-02-19T04:53:23;11.80;99.90
22035;DHT22;11181;51.002;4.356;2023-02-19T04:55:50;11.70;99.90
22035;DHT22;11181;51.002;4.356;2023-02-19T04:58:18;11.70;99.90
22035;DHT22;11181;51.002;4.356;2023-02-19T05:00:46;11.70;99.90
22035;DHT22;11181;51.002;4.356;2023-02-19T05:03:16;11.70;99.90
22035;DHT22;11181;51.002;4.356;2023-02-19T05:05:43;11.70;99.90
22035;DHT22;11181;51.002;4.356;2023-02-19T05:08:10;11.70;99.90
22035;DHT22;11181;51.002;4.356;2023-02-19T05:10:38;11.60;99.90
22035;DHT22;11181;51.002;4.356;2023-02-19T05:13:05;11.60;99.90
22035;DHT22;11181;51.002;4.356;2023-02-19T05:15:32;11.60;99.90
22035;DHT22;11181;51.002;4.356;2023-02-19T05:17:59;11.70;99.90
22035;DHT22;11181;51.002;4.356;2023-02-19T05:20:26;11.70;99.90
22035;DHT22;11181;51.002;4.356;2023-02-19T05:22:53;11.70;99.90
22035;DHT22;11181;51.002;4.356;2023-02-19T05:25:20;11.70;99.90
22035;DHT22;11181;51.002;4.356;2023-02-19T05:27:48;11.70;99.90
22035;DHT22;11181;51.002;4.356;2023-02-19T05:30:35;11.80;99.90
22035;DHT22;11181;51.002;4.356;2023-02-19T05:33:02;11.70;99.90
22035;DHT22;11181;51.002;4.356;2023-02-19T05:35:29;11.80;99.90
22035;DHT22;11181;51.002;4.356;2023-02-19T05:37:56;11.80;99.90
22035;DHT22;11181;51.002;4.356;2023-02-19T05:40:23;11.80;99.90
22035;DHT22;11181;51.002;4.356;2023-02-19T05:42:51;11.80;99.90
22035;DHT22;11181;51.002;4.356;2023-02-19T05:45:18;11.90;99.90
22035;DHT22;11181;51.002;4.356;2023-02-19T05:47:45;11.80;99.90
22035;DHT22;11181;51.002;4.356;2023-02-19T05:50:11;11.80;99.90
22035;DHT22;11181;51.002;4.356;2023-02-19T05:52:38;11.90;99.90
22035;DHT22;11181;51.002;4.356;2023-02-19T05:55:06;11.80;99.90
22035;DHT22;11181;51.002;4.356;2023-02-19T05:57:33;11.80;99.90
22035;DHT22;11181;51.002;4.356;2023-02-19T06:00:08;11.90;99.90
22035;DHT22;11181;51.002;4.356;2023-02-19T06:02:35;11.90;99.90
22035;DHT22;11181;51.002;4.356;2023-02-19T06:05:03;11.90;99.90
22035;DHT22;11181;51.002;4.356;2023-02-19T06:07:30;11.90;99.90
22035;DHT22;11181;51.002;4.356;2023-02-19T06:09:57;11.90;99.90
22035;DHT22;11181;51.002;4.356;2023-02-19T06:12:24;11.90;99.90
22035;DHT22;11181;51.002;4.356;2023-02-19T06:14:51;11.90;99.90
22035;DHT22;11181;51.002;4.356;2023-02-19T06:17:19;11.80;99.90
22035;DHT22;11181;51.002;4.356;2023-02-19T06:19:46;11.90;99.90
22035;DHT22;11181;51.002;4.356;2023-02-19T06:22:13;11.80;99.90
22035;DHT22;11181;51.002;4.356;2023-02-19T06:24:40;11.80;99.90
22035;DHT22;11181;51.002;4.356;2023-02-19T06:27:08;11.80;99.90
22035;DHT22;11181;51.002;4.356;2023-02-19T06:29:35;11.80;99.90
22035;DHT22;11181;51.002;4.356;2023-02-19T06:32:03;11.80;99.90
22035;DHT22;11181;51.002;4.356;2023-02-19T06:34:32;11.80;99.90
22035;DHT22;11181;51.002;4.356;2023-02-19T06:36:59;11.80;99.90
22035;DHT22;11181;51.002;4.356;2023-02-19T06:39:27;11.80;99.90
22035;DHT22;11181;51.002;4.356;2023-02-19T06:41:55;11.80;99.90
22035;DHT22;11181;51.002;4.356;2023-02-19T06:44:22;11.80;99.90
22035;DHT22;11181;51.002;4.356;2023-02-19T06:46:50;11.80;99.90
22035;DHT22;11181;51.002;4.356;2023-02-19T06:49:17;11.80;99.90
22035;DHT22;11181;51.002;4.356;2023-02-19T06:51:45;11.80;99.90
22035;DHT22;11181;51.002;4.356;2023-02-19T06:54:12;11.70;99.90
22035;DHT22;11181;51.002;4.356;2023-02-19T06:56:40;11.70;99.90
22035;DHT22;11181;51.002;4.356;2023-02-19T06:59:10;11.70;99.90
22035;DHT22;11181;51.002;4.356;2023-02-19T07:01:38;11.70;99.90
22035;DHT22;11181;51.002;4.356;2023-02-19T07:04:05;11.70;99.90
22035;DHT22;11181;51.002;4.356;2023-02-19T07:06:33;11.70;99.90
22035;DHT22;11181;51.002;4.356;2023-02-19T07:09:03;11.80;99.90
22035;DHT22;11181;51.002;4.356;2023-02-19T07:11:32;11.80;99.90
22035;DHT22;11181;51.002;4.356;2023-02-19T07:14:02;11.80;99.90
22035;DHT22;11181;51.002;4.356;2023-02-19T07:16:29;11.80;99.90
22035;DHT22;11181;51.002;4.356;2023-02-19T07:18:57;11.90;99.90
22035;DHT22;11181;51.002;4.356;2023-02-19T07:21:25;11.90;99.90
22035;DHT22;11181;51.002;4.356;2023-02-19T07:23:52;11.90;99.90
22035;DHT22;11181;51.002;4.356;2023-02-19T07:26:21;11.90;99.90
22035;DHT22;11181;51.002;4.356;2023-02-19T07:28:49;11.90;99.90
22035;DHT22;11181;51.002;4.356;2023-02-19T07:31:17;11.90;99.90
22035;DHT22;11181;51.002;4.356;2023-02-19T07:33:45;11.90;99.90
22035;DHT22;11181;51.002;4.356;2023-02-19T07:36:13;11.90;99.90
22035;DHT22;11181;51.002;4.356;2023-02-19T07:38:41;11.90;99.90
22035;DHT22;11181;51.002;4.356;2023-02-19T07:41:08;11.90;99.90
22035;DHT22;11181;51.002;4.356;2023-02-19T07:43:37;11.90;99.90
22035;DHT22;11181;51.002;4.356;2023-02-19T07:46:05;11.90;99.90
22035;DHT22;11181;51.002;4.356;2023-02-19T07:48:33;11.90;99.90
22035;DHT22;11181;51.002;4.356;2023-02-19T07:51:01;11.80;99.90
22035;DHT22;11181;51.002;4.356;2023-02-19T07:53:28;11.80;99.90
22035;DHT22;11181;51.002;4.356;2023-02-19T07:55:58;11.80;99.90
22035;DHT22;11181;51.002;4.356;2023-02-19T07:58:26;11.80;99.90
22035;DHT22;11181;51.002;4.356;2023-02-19T08:00:54;11.80;99.90
22035;DHT22;11181;51.002;4.356;2023-02-19T08:03:21;11.80;99.90
22035;DHT22;11181;51.002;4.356;2023-02-19T08:05:47;11.80;99.90
22035;DHT22;11181;51.002;4.356;2023-02-19T08:08:18;11.80;99.90
22035;DHT22;11181;51.002;4.356;2023-02-19T08:10:45;11.90;99.90
22035;DHT22;11181;51.002;4.356;2023-02-19T08:13:29;11.90;99.90
22035;DHT22;11181;51.002;4.356;2023-02-19T08:16:09;11.80;99.90
22035;DHT22;11181;51.002;4.356;2023-02-19T08:18:37;11.80;99.90
22035;DHT22;11181;51.002;4.356;2023-02-19T08:21:04;11.80;99.90
22035;DHT22;11181;51.002;4.356;2023-02-19T08:23:31;11.90;99.90
22035;DHT22;11181;51.002;4.356;2023-02-19T08:25:59;11.90;99.90
22035;DHT22;11181;51.002;4.356;2023-02-19T08:28:27;11.90;99.90
22035;DHT22;11181;51.002;4.356;2023-02-19T08:31:01;11.90;99.90
22035;DHT22;11181;51.002;4.356;2023-02-19T08:33:29;11.90;99.90
22035;DHT22;11181;51.002;4.356;2023-02-19T08:35:59;11.90;99.90
22035;DHT22;11181;51.002;4.356;2023-02-19T08:38:29;11.90;99.90
22035;DHT22;11181;51.002;4.356;2023-02-19T08:40:56;12.00;99.90
22035;DHT22;11181;51.002;4.356;2023-02-19T08:43:23;11.90;99.90
22035;DHT22;11181;51.002;4.356;2023-02-19T08:45:52;12.00;99.90
22035;DHT22;11181;51.002;4.356;2023-02-19T08:48:21;12.10;99.90
22035;DHT22;11181;51.002;4.356;2023-02-19T08:50:55;12.10;99.90
22035;DHT22;11181;51.002;4.356;2023-02-19T08:53:22;12.10;99.90
22035;DHT22;11181;51.002;4.356;2023-02-19T08:55:50;12.10;99.90
22035;DHT22;11181;51.002;4.356;2023-02-19T08:58:17;12.00;99.90
22035;DHT22;11181;51.002;4.356;2023-02-19T09:00:44;12.00;99.90
22035;DHT22;11181;51.002;4.356;2023-02-19T09:03:11;12.10;99.90
22035;DHT22;11181;51.002;4.356;2023-02-19T09:05:40;12.20;99.90
22035;DHT22;11181;51.002;4.356;2023-02-19T09:08:07;12.20;99.90
22035;DHT22;11181;51.002;4.356;2023-02-19T09:10:34;12.30;99.90
22035;DHT22;11181;51.002;4.356;2023-02-19T09:13:01;12.30;99.90
22035;DHT22;11181;51.002;4.356;2023-02-19T09:15:28;12.40;99.90
22035;DHT22;11181;51.002;4.356;2023-02-19T09:17:55;12.30;99.90
22035;DHT22;11181;51.002;4.356;2023-02-19T09:20:22;12.20;99.90
22035;DHT22;11181;51.002;4.356;2023-02-19T09:22:55;12.30;99.90
22035;DHT22;11181;51.002;4.356;2023-02-19T09:25:22;12.10;99.90
22035;DHT22;11181;51.002;4.356;2023-02-19T09:27:53;12.00;99.90
22035;DHT22;11181;51.002;4.356;2023-02-19T09:30:20;12.00;99.90
22035;DHT22;11181;51.002;4.356;2023-02-19T09:32:47;12.00;99.90
22035;DHT22;11181;51.002;4.356;2023-02-19T09:35:14;12.20;99.90
22035;DHT22;11181;51.002;4.356;2023-02-19T09:37:41;12.20;99.90
22035;DHT22;11181;51.002;4.356;2023-02-19T09:40:10;12.20;99.90
22035;DHT22;11181;51.002;4.356;2023-02-19T09:42:39;12.20;99.90
22035;DHT22;11181;51.002;4.356;2023-02-19T09:45:11;12.10;99.90
22035;DHT22;11181;51.002;4.356;2023-02-19T09:47:41;12.20;99.90
22035;DHT22;11181;51.002;4.356;2023-02-19T09:50:12;12.10;99.90
22035;DHT22;11181;51.002;4.356;2023-02-19T09:52:43;12.00;99.90
22035;DHT22;11181;51.002;4.356;2023-02-19T09:55:16;11.90;99.90
22035;DHT22;11181;51.002;4.356;2023-02-19T09:57:45;12.00;99.90
22035;DHT22;11181;51.002;4.356;2023-02-19T10:00:20;12.00;99.90
22035;DHT22;11181;51.002;4.356;2023-02-19T10:02:51;12.10;99.90
22035;DHT22;11181;51.002;4.356;2023-02-19T10:05:19;12.10;99.90
22035;DHT22;11181;51.002;4.356;2023-02-19T10:07:50;12.30;99.90
22035;DHT22;11181;51.002;4.356;2023-02-19T10:10:23;12.30;99.90
22035;DHT22;11181;51.002;4.356;2023-02-19T10:12:53;12.20;99.90
22035;DHT22;11181;51.002;4.356;2023-02-19T10:15:25;12.30;99.90
22035;DHT22;11181;51.002;4.356;2023-02-19T10:17:54;12.30;99.90
22035;DHT22;11181;51.002;4.356;2023-02-19T10:20:23;12.30;99.90
22035;DHT22;11181;51.002;4.356;2023-02-19T10:22:56;12.40;99.90
22035;DHT22;11181;51.002;4.356;2023-02-19T10:25:26;12.50;99.90
22035;DHT22;11181;51.002;4.356;2023-02-19T10:27:53;12.60;99.90
22035;DHT22;11181;51.002;4.356;2023-02-19T10:30:22;12.60;99.90
22035;DHT22;11181;51.002;4.356;2023-02-19T10:33:01;12.70;99.90
22035;DHT22;11181;51.002;4.356;2023-02-19T10:35:29;12.80;99.90
22035;DHT22;11181;51.002;4.356;2023-02-19T10:37:57;12.70;99.90
22035;DHT22;11181;51.002;4.356;2023-02-19T10:40:26;12.60;99.90
22035;DHT22;11181;51.002;4.356;2023-02-19T10:42:56;12.70;99.90
22035;DHT22;11181;51.002;4.356;2023-02-19T10:45:29;12.70;99.90
22035;DHT22;11181;51.002;4.356;2023-02-19T10:47:59;12.80;99.90
22035;DHT22;11181;51.002;4.356;2023-02-19T10:50:28;12.70;99.90
22035;DHT22;11181;51.002;4.356;2023-02-19T10:52:58;12.70;99.90
22035;DHT22;11181;51.002;4.356;2023-02-19T10:55:29;12.70;99.90
22035;DHT22;11181;51.002;4.356;2023-02-19T10:57:56;12.60;99.90
22035;DHT22;11181;51.002;4.356;2023-02-19T11:00:25;12.60;99.90
22035;DHT22;11181;51.002;4.356;2023-02-19T11:03:18;12.70;99.90
22035;DHT22;11181;51.002;4.356;2023-02-19T11:05:59;12.80;99.90
22035;DHT22;11181;51.002;4.356;2023-02-19T11:08:27;12.70;99.90
22035;DHT22;11181;51.002;4.356;2023-02-19T11:10:56;12.60;99.90
22035;DHT22;11181;51.002;4.356;2023-02-19T11:13:27;12.60;99.90
22035;DHT22;11181;51.002;4.356;2023-02-19T11:15:57;12.60;99.90
22035;DHT22;11181;51.002;4.356;2023-02-19T11:18:26;12.50;99.90
22035;DHT22;11181;51.002;4.356;2023-02-19T11:20:55;12.50;99.90
22035;DHT22;11181;51.002;4.356;2023-02-19T11:23:26;12.50;99.90
22035;DHT22;11181;51.002;4.356;2023-02-19T11:25:57;12.30;99.90
22035;DHT22;11181;51.002;4.356;2023-02-19T11:28:34;12.30;99.90
22035;DHT22;11181;51.002;4.356;2023-02-19T11:31:21;12.40;99.90
22035;DHT22;11181;51.002;4.356;2023-02-19T11:33:53;12.40;99.90
22035;DHT22;11181;51.002;4.356;2023-02-19T11:36:28;12.40;99.90
22035;DHT22;11181;51.002;4.356;2023-02-19T11:38:57;12.30;99.90
22035;DHT22;11181;51.002;4.356;2023-02-19T11:41:42;12.30;99.90
22035;DHT22;11181;51.002;4.356;2023-02-19T11:44:21;12.40;99.90
22035;DHT22;11181;51.002;4.356;2023-02-19T11:47:07;12.50;99.90
22035;DHT22;11181;51.002;4.356;2023-02-19T11:49:44;12.60;99.90
22035;DHT22;11181;51.002;4.356;2023-02-19T11:52:26;12.40;99.90
22035;DHT22;11181;51.002;4.356;2023-02-19T11:55:00;12.30;99.90
22035;DHT22;11181;51.002;4.356;2023-02-19T11:57:39;12.40;99.90
22035;DHT22;11181;51.002;4.356;2023-02-19T12:00:19;12.40;99.90
22035;DHT22;11181;51.002;4.356;2023-02-19T12:05:49;12.50;99.90
22035;DHT22;11181;51.002;4.356;2023-02-19T12:08:42;12.50;99.90
22035;DHT22;11181;51.002;4.356;2023-02-19T12:11:24;12.60;99.90
22035;DHT22;11181;51.002;4.356;2023-02-19T12:14:08;12.50;99.90
22035;DHT22;11181;51.002;4.356;2023-02-19T12:16:46;12.20;99.90
22035;DHT22;11181;51.002;4.356;2023-02-19T12:19:29;12.20;99.90
22035;DHT22;11181;51.002;4.356;2023-02-19T12:22:11;12.30;99.90
22035;DHT22;11181;51.002;4.356;2023-02-19T12:28:09;12.50;99.90
22035;DHT22;11181;51.002;4.356;2023-02-19T12:33:58;12.40;99.90
22035;DHT22;11181;51.002;4.356;2023-02-19T12:36:35;12.20;99.90
22035;DHT22;11181;51.002;4.356;2023-02-19T12:39:11;12.40;99.90
22035;DHT22;11181;51.002;4.356;2023-02-19T12:41:48;12.30;99.90
22035;DHT22;11181;51.002;4.356;2023-02-19T12:44:23;12.10;99.90
22035;DHT22;11181;51.002;4.356;2023-02-19T12:46:58;12.10;99.90
22035;DHT22;11181;51.002;4.356;2023-02-19T12:49:31;11.90;99.90
22035;DHT22;11181;51.002;4.356;2023-02-19T12:52:02;11.80;99.90
22035;DHT22;11181;51.002;4.356;2023-02-19T12:54:34;12.00;99.90
22035;DHT22;11181;51.002;4.356;2023-02-19T12:57:05;12.10;99.90
22035;DHT22;11181;51.002;4.356;2023-02-19T12:59:37;12.20;99.90
22035;DHT22;11181;51.002;4.356;2023-02-19T13:02:15;12.20;99.90
22035;DHT22;11181;51.002;4.356;2023-02-19T13:04:48;12.00;99.90
22035;DHT22;11181;51.002;4.356;2023-02-19T13:07:22;12.10;99.90
22035;DHT22;11181;51.002;4.356;2023-02-19T13:09:52;12.10;99.90
22035;DHT22;11181;51.002;4.356;2023-02-19T13:12:23;12.20;99.90
22035;DHT22;11181;51.002;4.356;2023-02-19T13:14:55;12.10;99.90
22035;DHT22;11181;51.002;4.356;2023-02-19T13:17:27;12.00;99.90
22035;DHT22;11181;51.002;4.356;2023-02-19T13:20:00;12.00;99.90
22035;DHT22;11181;51.002;4.356;2023-02-19T13:22:33;12.10;99.90
22035;DHT22;11181;51.002;4.356;2023-02-19T13:25:20;12.10;99.90
22035;DHT22;11181;51.002;4.356;2023-02-19T13:28:03;12.30;99.90
22035;DHT22;11181;51.002;4.356;2023-02-19T13:30:39;12.40;99.90
22035;DHT22;11181;51.002;4.356;2023-02-19T13:33:22;12.30;99.90
22035;DHT22;11181;51.002;4.356;2023-02-19T13:36:05;12.30;99.90
22035;DHT22;11181;51.002;4.356;2023-02-19T13:38:37;12.40;99.90
22035;DHT22;11181;51.002;4.356;2023-02-19T13:41:05;12.40;99.90
22035;DHT22;11181;51.002;4.356;2023-02-19T13:43:35;12.30;99.90
22035;DHT22;11181;51.002;4.356;2023-02-19T13:46:05;12.20;99.90
22035;DHT22;11181;51.002;4.356;2023-02-19T13:48:35;12.10;99.90
22035;DHT22;11181;51.002;4.356;2023-02-19T13:51:37;12.10;99.90
22035;DHT22;11181;51.002;4.356;2023-02-19T13:54:19;12.10;99.90
22035;DHT22;11181;51.002;4.356;2023-02-19T13:56:46;11.90;99.90
22035;DHT22;11181;51.002;4.356;2023-02-19T13:59:32;12.00;99.90
22035;DHT22;11181;51.002;4.356;2023-02-19T14:02:10;12.00;99.90
22035;DHT22;11181;51.002;4.356;2023-02-19T14:04:51;12.00;99.90
22035;DHT22;11181;51.002;4.356;2023-02-19T14:10:13;11.60;99.90
22035;DHT22;11181;51.002;4.356;2023-02-19T14:12:59;11.40;99.90
22035;DHT22;11181;51.002;4.356;2023-02-19T14:15:43;11.20;99.90
22035;DHT22;11181;51.002;4.356;2023-02-19T14:18:41;10.90;99.90
22035;DHT22;11181;51.002;4.356;2023-02-19T14:21:20;10.90;99.90
22035;DHT22;11181;51.002;4.356;2023-02-19T14:23:51;11.10;99.90
22035;DHT22;11181;51.002;4.356;2023-02-19T14:26:20;11.30;99.90
22035;DHT22;11181;51.002;4.356;2023-02-19T14:28:48;11.40;99.90
22035;DHT22;11181;51.002;4.356;2023-02-19T14:31:25;11.40;99.90
22035;DHT22;11181;51.002;4.356;2023-02-19T14:33:54;11.30;99.90
22035;DHT22;11181;51.002;4.356;2023-02-19T14:36:41;11.30;99.90
22035;DHT22;11181;51.002;4.356;2023-02-19T14:39:15;11.40;99.90
22035;DHT22;11181;51.002;4.356;2023-02-19T14:41:45;11.40;99.90
22035;DHT22;11181;51.002;4.356;2023-02-19T14:44:16;11.60;99.90
22035;DHT22;11181;51.002;4.356;2023-02-19T14:46:55;11.70;99.90
22035;DHT22;11181;51.002;4.356;2023-02-19T14:49:26;11.70;99.90
22035;DHT22;11181;51.002;4.356;2023-02-19T14:51:58;11.80;99.90
22035;DHT22;11181;51.002;4.356;2023-02-19T14:54:34;11.90;99.90
22035;DHT22;11181;51.002;4.356;2023-02-19T14:57:04;11.90;99.90
22035;DHT22;11181;51.002;4.356;2023-02-19T14:59:33;12.00;99.90
22035;DHT22;11181;51.002;4.356;2023-02-19T15:02:02;12.10;99.90
22035;DHT22;11181;51.002;4.356;2023-02-19T15:04:34;12.10;99.90
22035;DHT22;11181;51.002;4.356;2023-02-19T15:07:07;12.00;99.90
22035;DHT22;11181;51.002;4.356;2023-02-19T15:09:38;12.10;99.90
22035;DHT22;11181;51.002;4.356;2023-02-19T15:12:12;12.10;99.90
22035;DHT22;11181;51.002;4.356;2023-02-19T15:14:39;12.10;99.90
22035;DHT22;11181;51.002;4.356;2023-02-19T15:17:07;12.10;99.90
22035;DHT22;11181;51.002;4.356;2023-02-19T15:19:35;12.10;99.90
22035;DHT22;11181;51.002;4.356;2023-02-19T15:22:05;12.10;99.90
22035;DHT22;11181;51.002;4.356;2023-02-19T15:24:33;12.10;99.90
22035;DHT22;11181;51.002;4.356;2023-02-19T15:27:01;12.10;99.90
22035;DHT22;11181;51.002;4.356;2023-02-19T15:29:28;12.10;99.90
22035;DHT22;11181;51.002;4.356;2023-02-19T15:31:57;12.10;99.90
22035;DHT22;11181;51.002;4.356;2023-02-19T15:34:25;12.10;99.90
22035;DHT22;11181;51.002;4.356;2023-02-19T15:36:56;11.90;99.90
22035;DHT22;11181;51.002;4.356;2023-02-19T15:39:34;11.80;99.90
22035;DHT22;11181;51.002;4.356;2023-02-19T15:42:07;11.80;99.90
22035;DHT22;11181;51.002;4.356;2023-02-19T15:44:41;11.70;99.90
22035;DHT22;11181;51.002;4.356;2023-02-19T15:47:15;11.60;99.90
22035;DHT22;11181;51.002;4.356;2023-02-19T15:49:50;11.60;99.90
22035;DHT22;11181;51.002;4.356;2023-02-19T15:52:34;11.60;99.90
22035;DHT22;11181;51.002;4.356;2023-02-19T15:55:12;11.50;99.90
22035;DHT22;11181;51.002;4.356;2023-02-19T15:57:48;11.40;99.90
22035;DHT22;11181;51.002;4.356;2023-02-19T16:00:19;11.40;99.90
22035;DHT22;11181;51.002;4.356;2023-02-19T16:02:48;11.60;99.90
22035;DHT22;11181;51.002;4.356;2023-02-19T16:05:23;11.70;99.90
22035;DHT22;11181;51.002;4.356;2023-02-19T16:08:05;11.80;99.90
22035;DHT22;11181;51.002;4.356;2023-02-19T16:10:34;11.80;99.90